Time;durP1;ratioP1;P1;durP2;ratioP2;P2;SDS_P1;SDS_P2;PMS_P1;PMS_P2;Temp;Humidity;BMP_temperature;BMP_pressure;BME280_temperature;BME280_humidity;BME280_pressure;Samples;Min_cycle;Max_cycle;Signal;HPM_P1;HPM_P2
2023/05/04 00:01:50;0.00;0.00;0.62;0.00;0.00;0.62;3.00;2.50;;;26.40;20.90;;;;;;2247998;61;20378;-65
2023/05/04 00:04:35;0.00;0.00;0.62;0.00;0.00;0.62;2.63;2.13;;;26.40;20.90;;;;;;2248314;61;20360;-66
2023/05/04 00:07:20;0.00;0.00;0.62;0.00;0.00;0.62;2.67;2.17;;;26.40;20.90;;;;;;2248434;61;20376;-66
2023/05/04 00:10:08;0.00;0.00;0.62;0.00;0.00;0.62;3.00;2.10;;;26.40;20.90;;;;;;2248458;61;20800;-66
2023/05/04 00:12:52;0.00;0.00;0.62;0.00;0.00;0.62;3.97;2.40;;;26.30;20.90;;;;;;2248273;61;20411;-66
2023/05/04 00:15:37;0.00;0.00;0.62;0.00;0.00;0.62;3.33;2.53;;;26.30;20.90;;;;;;2248568;61;20364;-66
2023/05/04 00:18:22;0.00;0.00;0.62;0.00;0.00;0.62;3.27;2.30;;;26.30;20.90;;;;;;2248461;61;20988;-66
2023/05/04 00:21:07;0.00;0.00;0.62;0.00;0.00;0.62;3.47;2.90;;;26.30;20.90;;;;;;2248055;61;20383;-65
2023/05/04 00:23:51;0.00;0.00;0.62;0.00;0.00;0.62;3.40;2.20;;;26.30;20.90;;;;;;2248720;61;20368;-66
2023/05/04 00:26:37;0.00;0.00;0.62;0.00;0.00;0.62;2.57;1.93;;;26.30;20.90;;;;;;2248069;61;20387;-66
2023/05/04 00:29:22;0.00;0.00;0.62;0.00;0.00;0.62;3.87;3.27;;;26.30;20.90;;;;;;2248376;61;20460;-67
2023/05/04 00:32:07;0.00;0.00;0.62;0.00;0.00;0.62;3.00;2.23;;;26.30;20.90;;;;;;2248353;61;20414;-66
2023/05/04 00:34:52;0.00;0.00;0.62;0.00;0.00;0.62;3.10;2.60;;;26.30;20.90;;;;;;2247201;61;20359;-66
2023/05/04 00:37:38;0.00;0.00;0.62;0.00;0.00;0.62;3.00;2.37;;;26.30;20.90;;;;;;2248692;61;20766;-65
2023/05/04 00:40:24;0.00;0.00;0.62;0.00;0.00;0.62;2.80;2.07;;;26.30;20.90;;;;;;2248002;61;20403;-66
2023/05/04 00:43:10;0.00;0.00;0.62;0.00;0.00;0.62;2.67;1.90;;;26.30;20.90;;;;;;2248084;61;20387;-66
2023/05/04 00:45:55;0.00;0.00;0.62;0.00;0.00;0.62;2.63;2.27;;;26.20;20.80;;;;;;2248658;61;20371;-65
2023/05/04 00:48:41;0.00;0.00;0.62;0.00;0.00;0.62;2.60;2.00;;;26.30;20.90;;;;;;2248066;61;20435;-66
2023/05/04 00:51:26;0.00;0.00;0.62;0.00;0.00;0.62;3.77;2.10;;;26.30;20.90;;;;;;2248602;61;20434;-66
2023/05/04 00:54:13;0.00;0.00;0.62;0.00;0.00;0.62;2.90;2.30;;;26.20;20.90;;;;;;2248600;61;20414;-66
2023/05/04 00:56:57;0.00;0.00;0.62;0.00;0.00;0.62;2.80;2.10;;;26.20;20.90;;;;;;2248037;61;20432;-65
2023/05/04 00:59:44;0.00;0.00;0.62;0.00;0.00;0.62;2.70;2.00;;;26.20;20.90;;;;;;2248186;61;20505;-65
2023/05/04 01:02:29;0.00;0.00;0.62;0.00;0.00;0.62;2.30;1.97;;;26.20;20.90;;;;;;2248331;61;20367;-66
2023/05/04 01:05:14;0.00;0.00;0.62;0.00;0.00;0.62;3.07;2.47;;;26.20;20.90;;;;;;2247797;61;20414;-66
2023/05/04 01:08:06;0.00;0.00;0.62;0.00;0.00;0.62;2.60;2.10;;;26.20;20.90;;;;;;2247935;61;20411;-65
2023/05/04 01:10:59;0.00;0.00;0.62;0.00;0.00;0.62;2.67;2.10;;;26.20;20.90;;;;;;2247300;61;20379;-66
2023/05/04 01:13:45;0.00;0.00;0.62;0.00;0.00;0.62;2.50;2.03;;;26.20;20.90;;;;;;2247925;61;20372;-67
2023/05/04 01:16:31;0.00;0.00;0.62;0.00;0.00;0.62;2.53;1.80;;;26.20;20.90;;;;;;2248401;61;20457;-66
2023/05/04 01:19:16;0.00;0.00;0.62;0.00;0.00;0.62;3.37;2.67;;;26.20;20.90;;;;;;2246844;61;20442;-65
2023/05/04 01:22:02;0.00;0.00;0.62;0.00;0.00;0.62;2.40;2.07;;;26.20;20.90;;;;;;2248426;61;20937;-66
2023/05/04 01:24:47;0.00;0.00;0.62;0.00;0.00;0.62;2.20;1.77;;;26.20;20.90;;;;;;2248207;61;20367;-66
2023/05/04 01:27:41;0.00;0.00;0.62;0.00;0.00;0.62;2.57;1.70;;;26.20;20.90;;;;;;2247592;61;20407;-65
2023/05/04 01:30:34;0.00;0.00;0.62;0.00;0.00;0.62;2.57;1.80;;;26.20;20.90;;;;;;2248041;61;20520;-66
2023/05/04 01:33:20;0.00;0.00;0.62;0.00;0.00;0.62;2.40;1.77;;;26.20;20.90;;;;;;2247412;61;20828;-65
2023/05/04 01:36:06;0.00;0.00;0.62;0.00;0.00;0.62;2.60;1.83;;;26.20;20.90;;;;;;2248264;61;20788;-66
2023/05/04 01:38:56;0.00;0.00;0.62;0.00;0.00;0.62;2.43;2.13;;;26.20;20.90;;;;;;2247578;61;20389;-66
2023/05/04 01:41:41;0.00;0.00;0.62;0.00;0.00;0.62;2.67;1.90;;;26.20;20.90;;;;;;2247838;61;20576;-66
2023/05/04 01:44:26;0.00;0.00;0.62;0.00;0.00;0.62;2.97;2.07;;;26.20;20.80;;;;;;2248183;61;20368;-66
2023/05/04 01:47:11;0.00;0.00;0.62;0.00;0.00;0.62;2.03;1.70;;;26.20;20.80;;;;;;2247846;61;20422;-66
2023/05/04 01:49:55;0.00;0.00;0.62;0.00;0.00;0.62;2.23;1.67;;;26.10;20.80;;;;;;2247758;61;20952;-65
2023/05/04 01:52:40;0.00;0.00;0.62;0.00;0.00;0.62;1.97;1.73;;;26.20;20.80;;;;;;2248436;61;20900;-65
2023/05/04 01:55:27;0.00;0.00;0.62;0.00;0.00;0.62;2.30;1.87;;;26.10;20.80;;;;;;2247675;61;20419;-66
2023/05/04 01:58:12;0.00;0.00;0.62;0.00;0.00;0.62;2.63;2.13;;;26.20;20.80;;;;;;2247849;61;20359;-65
2023/05/04 02:04:07;0.00;0.00;0.62;0.00;0.00;0.62;2.40;1.80;;;26.20;20.80;;;;;;2255208;61;20934;-65
2023/05/04 02:06:52;0.00;0.00;0.62;0.00;0.00;0.62;4.00;1.93;;;26.20;20.80;;;;;;2251892;61;20430;-66
2023/05/04 02:09:37;0.00;0.00;0.62;0.00;0.00;0.62;2.60;2.00;;;26.10;20.70;;;;;;2251208;61;20363;-64
2023/05/04 02:12:23;0.00;0.00;0.62;0.00;0.00;0.62;2.37;1.80;;;26.10;20.70;;;;;;2247503;61;20407;-69
2023/05/04 02:15:09;0.00;0.00;0.62;0.00;0.00;0.62;2.17;1.70;;;26.10;20.70;;;;;;2248370;61;20450;-65
2023/05/04 02:17:54;0.00;0.00;0.62;0.00;0.00;0.62;2.30;1.90;;;26.10;20.70;;;;;;2247168;61;20896;-69
2023/05/04 02:20:39;0.00;0.00;0.62;0.00;0.00;0.62;2.33;1.70;;;26.10;20.70;;;;;;2247441;61;20383;-65
2023/05/04 02:23:24;0.00;0.00;0.62;0.00;0.00;0.62;2.50;1.73;;;26.10;20.70;;;;;;2248264;61;20510;-65
2023/05/04 02:26:10;0.00;0.00;0.62;0.00;0.00;0.62;2.00;1.40;;;26.10;20.70;;;;;;2247504;61;20363;-65
2023/05/04 02:28:56;0.00;0.00;0.62;0.00;0.00;0.62;1.80;1.37;;;26.10;20.70;;;;;;2247523;61;20371;-65
2023/05/04 02:31:41;0.00;0.00;0.62;0.00;0.00;0.62;2.10;1.47;;;26.10;20.70;;;;;;2247399;61;20388;-65
2023/05/04 02:34:25;0.00;0.00;0.62;0.00;0.00;0.62;2.30;1.30;;;26.10;20.70;;;;;;2247498;61;20423;-64
2023/05/04 02:37:12;0.00;0.00;0.62;0.00;0.00;0.62;4.10;1.70;;;26.10;20.70;;;;;;2247913;61;20880;-65
2023/05/04 02:39:56;0.00;0.00;0.62;0.00;0.00;0.62;2.00;1.63;;;26.10;20.70;;;;;;2247329;61;20383;-65
2023/05/04 02:42:41;0.00;0.00;0.62;0.00;0.00;0.62;2.57;1.53;;;26.10;20.70;;;;;;2248344;61;20363;-65
2023/05/04 02:45:27;0.00;0.00;0.62;0.00;0.00;0.62;1.80;1.40;;;26.00;20.60;;;;;;2248190;61;20920;-65
2023/05/04 02:48:11;0.00;0.00;0.62;0.00;0.00;0.62;1.97;1.70;;;26.00;20.60;;;;;;2247485;61;20399;-65
2023/05/04 02:50:56;0.00;0.00;0.62;0.00;0.00;0.62;2.10;1.37;;;26.00;20.60;;;;;;2247956;61;20395;-65
2023/05/04 02:53:41;0.00;0.00;0.62;0.00;0.00;0.62;2.10;1.50;;;26.00;20.60;;;;;;2247561;61;20670;-65
2023/05/04 02:56:26;0.00;0.00;0.62;0.00;0.00;0.62;2.80;1.80;;;26.00;20.60;;;;;;2248034;61;20363;-65
2023/05/04 02:59:11;0.00;0.00;0.62;0.00;0.00;0.62;1.97;1.30;;;26.00;20.60;;;;;;2247468;61;20362;-69
2023/05/04 03:01:57;0.00;0.00;0.62;0.00;0.00;0.62;2.10;1.50;;;26.00;20.60;;;;;;2247423;61;20511;-65
2023/05/04 03:04:42;0.00;0.00;0.62;0.00;0.00;0.62;1.90;1.50;;;26.00;20.60;;;;;;2247648;61;20460;-66
2023/05/04 03:07:27;0.00;0.00;0.62;0.00;0.00;0.62;1.90;1.53;;;26.00;20.60;;;;;;2248020;61;20392;-65
2023/05/04 03:13:07;0.00;0.00;0.62;0.00;0.00;0.62;2.10;1.80;;;26.00;20.60;;;;;;2262022;61;20431;-65
2023/05/04 03:15:52;0.00;0.00;0.62;0.00;0.00;0.62;1.53;1.17;;;25.90;20.50;;;;;;2259405;61;20373;-65
2023/05/04 03:18:38;0.00;0.00;0.62;0.00;0.00;0.62;2.57;1.67;;;25.90;20.50;;;;;;2259257;61;20376;-65
2023/05/04 03:21:23;0.00;0.00;0.62;0.00;0.00;0.62;1.70;1.30;;;25.90;20.50;;;;;;2259387;61;20599;-65
2023/05/04 03:24:10;0.00;0.00;0.62;0.00;0.00;0.62;2.40;1.70;;;25.90;20.50;;;;;;2259192;61;20412;-65
2023/05/04 03:26:55;0.00;0.00;0.62;0.00;0.00;0.62;2.67;1.23;;;25.90;20.50;;;;;;2259490;61;20425;-64
2023/05/04 03:29:40;0.00;0.00;0.62;0.00;0.00;0.62;2.20;1.80;;;25.90;20.50;;;;;;2259300;61;20420;-64
2023/05/04 03:32:25;0.00;0.00;0.62;0.00;0.00;0.62;1.80;1.47;;;25.90;20.50;;;;;;2259131;61;20392;-64
2023/05/04 03:35:13;0.00;0.00;0.62;0.00;0.00;0.62;2.43;1.50;;;25.90;20.60;;;;;;2259703;61;20365;-64
2023/05/04 03:37:59;0.00;0.00;0.62;0.00;0.00;0.62;1.90;1.37;;;25.80;20.50;;;;;;2259454;61;20383;-64
2023/05/04 03:40:44;0.00;0.00;0.62;0.00;0.00;0.62;1.70;1.50;;;25.80;20.50;;;;;;2259583;61;20380;-64
2023/05/04 03:43:31;0.00;0.00;0.62;0.00;0.00;0.62;1.70;1.20;;;25.80;20.50;;;;;;2260334;61;20372;-64
2023/05/04 03:46:17;0.00;0.00;0.62;0.00;0.00;0.62;2.80;1.27;;;25.80;20.50;;;;;;2260021;61;20407;-65
2023/05/04 03:49:03;0.00;0.00;0.62;0.00;0.00;0.62;1.90;1.37;;;25.80;20.50;;;;;;2260105;61;20431;-64
2023/05/04 03:51:50;0.00;0.00;0.62;0.00;0.00;0.62;1.70;1.20;;;25.80;20.50;;;;;;2260519;61;20972;-67
2023/05/04 03:54:35;0.00;0.00;0.62;0.00;0.00;0.62;2.47;1.23;;;25.80;20.50;;;;;;2259932;61;20415;-64
2023/05/04 03:57:21;0.00;0.00;0.62;0.00;0.00;0.62;1.67;1.17;;;25.80;20.50;;;;;;2260770;61;20356;-64
2023/05/04 04:00:07;0.00;0.00;0.62;0.00;0.00;0.62;2.10;1.57;;;25.80;20.50;;;;;;2260214;61;20377;-64
2023/05/04 04:02:59;0.00;0.00;0.62;0.00;0.00;0.62;1.60;1.00;;;25.80;20.60;;;;;;2260295;61;20380;-64
2023/05/04 04:05:44;0.00;0.00;0.62;0.00;0.00;0.62;2.00;1.20;;;25.70;20.50;;;;;;2260444;61;20768;-64
2023/05/04 04:08:30;0.00;0.00;0.62;0.00;0.00;0.62;2.00;1.30;;;25.70;20.50;;;;;;2259730;61;20390;-65
2023/05/04 04:11:15;0.00;0.00;0.62;0.00;0.00;0.62;1.83;1.30;;;25.70;20.50;;;;;;2260590;61;20388;-65
2023/05/04 04:13:59;0.00;0.00;0.62;0.00;0.00;0.62;1.80;1.20;;;25.70;20.50;;;;;;2260210;61;20435;-65
2023/05/04 04:16:44;0.00;0.00;0.62;0.00;0.00;0.62;1.90;1.30;;;25.70;20.50;;;;;;2259252;61;20403;-65
2023/05/04 04:19:28;0.00;0.00;0.62;0.00;0.00;0.62;1.60;0.90;;;25.70;20.50;;;;;;2260266;61;20361;-65
2023/05/04 04:22:13;0.00;0.00;0.62;0.00;0.00;0.62;1.70;1.00;;;25.70;20.50;;;;;;2260584;61;20360;-65
2023/05/04 04:24:59;0.00;0.00;0.62;0.00;0.00;0.62;2.00;1.30;;;25.70;20.50;;;;;;2260132;61;20763;-64
2023/05/04 04:27:44;0.00;0.00;0.62;0.00;0.00;0.62;1.87;1.27;;;25.70;20.50;;;;;;2260436;61;20549;-63
2023/05/04 04:30:28;0.00;0.00;0.62;0.00;0.00;0.62;1.80;1.30;;;25.70;20.50;;;;;;2260005;61;20385;-65
2023/05/04 04:33:14;0.00;0.00;0.62;0.00;0.00;0.62;1.60;1.13;;;25.70;20.50;;;;;;2260169;61;20503;-65
2023/05/04 04:35:58;0.00;0.00;0.62;0.00;0.00;0.62;1.50;1.10;;;25.60;20.50;;;;;;2260736;61;20369;-65
2023/05/04 04:38:43;0.00;0.00;0.62;0.00;0.00;0.62;1.60;1.10;;;25.60;20.50;;;;;;2260180;61;20982;-65
2023/05/04 04:41:30;0.00;0.00;0.62;0.00;0.00;0.62;1.70;1.20;;;25.60;21.00;;;;;;2260568;61;20407;-65
2023/05/04 04:44:14;0.00;0.00;0.62;0.00;0.00;0.62;1.80;1.10;;;25.60;20.50;;;;;;2260300;61;20365;-65
2023/05/04 04:46:59;0.00;0.00;0.62;0.00;0.00;0.62;1.67;1.20;;;25.60;20.50;;;;;;2259966;61;20412;-65
2023/05/04 04:49:44;0.00;0.00;0.62;0.00;0.00;0.62;2.37;1.40;;;25.60;21.00;;;;;;2260068;61;20361;-65
2023/05/04 04:52:31;0.00;0.00;0.62;0.00;0.00;0.62;1.90;1.20;;;25.60;20.50;;;;;;2260232;61;20902;-65
2023/05/04 04:55:16;0.00;0.00;0.62;0.00;0.00;0.62;1.87;1.10;;;25.60;20.50;;;;;;2260375;61;20360;-65
2023/05/04 04:58:02;0.00;0.00;0.62;0.00;0.00;0.62;1.60;1.13;;;25.60;20.50;;;;;;2259934;61;20365;-65
2023/05/04 05:00:47;0.00;0.00;0.62;0.00;0.00;0.62;2.17;1.43;;;25.60;20.60;;;;;;2259474;61;20477;-65
2023/05/04 05:03:32;0.00;0.00;0.62;0.00;0.00;0.62;1.70;1.00;;;25.50;20.50;;;;;;2260060;61;20373;-66
2023/05/04 05:06:17;0.00;0.00;0.62;0.00;0.00;0.62;2.43;1.30;;;25.50;20.50;;;;;;2260513;61;20369;-65
2023/05/04 05:09:02;0.00;0.00;0.62;0.00;0.00;0.62;1.97;1.47;;;25.50;20.50;;;;;;2259680;61;20420;-66
2023/05/04 05:11:47;0.00;0.00;0.62;0.00;0.00;0.62;1.60;1.00;;;25.50;20.50;;;;;;2260393;61;20439;-66
2023/05/04 05:14:33;0.00;0.00;0.62;0.00;0.00;0.62;1.67;1.10;;;25.50;20.50;;;;;;2260135;61;20381;-66
2023/05/04 05:17:18;0.00;0.00;0.62;0.00;0.00;0.62;1.93;1.13;;;25.50;20.70;;;;;;2259777;61;20844;-69
2023/05/04 05:20:09;0.00;0.00;0.62;0.00;0.00;0.62;2.20;1.20;;;25.50;20.50;;;;;;2260153;61;20381;-66
2023/05/04 05:22:54;0.00;0.00;0.62;0.00;0.00;0.62;1.70;1.10;;;25.50;20.50;;;;;;2259704;61;20369;-66
2023/05/04 05:25:38;0.00;0.00;0.62;0.00;0.00;0.62;1.73;1.37;;;25.50;20.50;;;;;;2260106;61;20667;-66
2023/05/04 05:28:23;0.00;0.00;0.62;0.00;0.00;0.62;2.20;1.37;;;25.50;20.50;;;;;;2260236;61;20480;-67
2023/05/04 05:31:10;0.00;0.00;0.62;0.00;0.00;0.62;2.10;1.17;;;25.50;20.60;;;;;;2259668;61;20392;-66
2023/05/04 05:33:55;0.00;0.00;0.62;0.00;0.00;0.62;1.60;1.20;;;25.50;20.50;;;;;;2260152;61;20886;-66
2023/05/04 05:36:39;0.00;0.00;0.62;0.00;0.00;0.62;1.53;1.07;;;25.50;20.60;;;;;;2260124;61;20393;-66
2023/05/04 05:39:24;0.00;0.00;0.62;0.00;0.00;0.62;1.57;1.07;;;25.50;20.60;;;;;;2259508;61;20459;-66
2023/05/04 05:42:10;0.00;0.00;0.62;0.00;0.00;0.62;2.30;1.23;;;25.50;20.60;;;;;;2260539;61;20784;-66
2023/05/04 05:44:54;0.00;0.00;0.62;0.00;0.00;0.62;2.60;1.40;;;25.50;20.60;;;;;;2259629;61;20446;-66
2023/05/04 05:47:40;0.00;0.00;0.62;0.00;0.00;0.62;1.70;1.03;;;25.50;20.60;;;;;;2260215;61;20394;-66
2023/05/04 05:50:25;0.00;0.00;0.62;0.00;0.00;0.62;1.70;1.23;;;25.50;20.60;;;;;;2260011;61;20928;-66
2023/05/04 05:53:10;0.00;0.00;0.62;0.00;0.00;0.62;1.97;1.40;;;25.50;20.60;;;;;;2259797;61;20407;-66
2023/05/04 05:55:55;0.00;0.00;0.62;0.00;0.00;0.62;1.80;1.17;;;25.50;20.60;;;;;;2260220;61;20368;-66
2023/05/04 05:58:40;0.00;0.00;0.62;0.00;0.00;0.62;1.67;1.20;;;25.50;20.60;;;;;;2260119;61;20361;-66
2023/05/04 06:01:25;0.00;0.00;0.62;0.00;0.00;0.62;1.70;1.10;;;25.50;20.60;;;;;;2259737;61;20380;-66
2023/05/04 06:04:12;0.00;0.00;0.62;0.00;0.00;0.62;1.80;1.40;;;25.50;20.60;;;;;;2260042;61;20407;-66
2023/05/04 06:06:56;0.00;0.00;0.62;0.00;0.00;0.62;2.30;1.40;;;25.50;20.60;;;;;;2259669;61;20388;-66
2023/05/04 06:09:41;0.00;0.00;0.62;0.00;0.00;0.62;1.87;1.10;;;25.50;20.60;;;;;;2259905;61;20369;-66
2023/05/04 06:12:26;0.00;0.00;0.62;0.00;0.00;0.62;2.33;1.50;;;25.50;20.60;;;;;;2260420;61;20480;-67
2023/05/04 06:15:13;0.00;0.00;0.62;0.00;0.00;0.62;1.97;1.47;;;25.50;20.60;;;;;;2259585;61;20369;-66
2023/05/04 06:17:58;0.00;0.00;0.62;0.00;0.00;0.62;2.13;1.37;;;25.40;20.60;;;;;;2260339;61;20420;-67
2023/05/04 06:20:44;0.00;0.00;0.62;0.00;0.00;0.62;2.27;1.60;;;25.50;20.60;;;;;;2259732;61;20421;-66
2023/05/04 06:23:30;0.00;0.00;0.62;0.00;0.00;0.62;2.03;1.53;;;25.40;20.60;;;;;;2259895;61;20373;-66
2023/05/04 06:26:15;0.00;0.00;0.62;0.00;0.00;0.62;2.13;1.63;;;25.50;20.70;;;;;;2260179;61;20413;-67
2023/05/04 06:29:00;0.00;0.00;0.62;0.00;0.00;0.62;3.53;2.50;;;25.50;20.60;;;;;;2259418;61;20496;-65
2023/05/04 06:31:47;0.00;0.00;0.62;0.00;0.00;0.62;3.87;2.83;;;25.40;20.60;;;;;;2260348;61;20960;-67
2023/05/04 06:34:32;0.00;0.00;0.62;0.00;0.00;0.62;4.30;3.17;;;25.50;20.70;;;;;;2260286;61;20452;-66
2023/05/04 06:37:18;0.00;0.00;0.62;0.00;0.00;0.62;5.37;4.33;;;25.50;20.70;;;;;;2259531;61;20397;-66
2023/05/04 06:40:04;0.00;0.00;0.62;0.00;0.00;0.62;4.47;4.03;;;25.40;20.60;;;;;;2259552;61;20443;-66
2023/05/04 06:42:49;0.00;0.00;0.62;0.00;0.00;0.62;5.73;5.13;;;25.50;20.70;;;;;;2260211;61;20423;-66
2023/05/04 06:45:34;0.00;0.00;0.62;0.00;0.00;0.62;6.87;5.40;;;25.40;20.60;;;;;;2259627;61;20359;-65
2023/05/04 06:48:19;0.00;0.00;0.62;0.00;0.00;0.62;5.93;5.33;;;25.50;20.70;;;;;;2260227;61;20432;-65
2023/05/04 06:51:03;0.00;0.00;0.62;0.00;0.00;0.62;7.57;5.50;;;25.50;20.70;;;;;;2259752;61;20388;-66
2023/05/04 06:53:50;0.00;0.00;0.62;0.00;0.00;0.62;6.07;5.40;;;25.40;21.30;;;;;;2260045;61;20357;-67
2023/05/04 06:56:34;0.00;0.00;0.62;0.00;0.00;0.62;6.10;5.50;;;25.50;20.70;;;;;;2260020;61;20796;-67
2023/05/04 06:59:19;0.00;0.00;0.62;0.00;0.00;0.62;5.60;4.90;;;25.50;20.70;;;;;;2259133;61;20762;-66
2023/05/04 07:02:04;0.00;0.00;0.62;0.00;0.00;0.62;6.20;5.60;;;25.50;20.70;;;;;;2259991;61;20385;-67
2023/05/04 07:04:49;0.00;0.00;0.62;0.00;0.00;0.62;6.70;6.00;;;25.50;20.70;;;;;;2260235;61;20365;-65
2023/05/04 07:07:35;0.00;0.00;0.62;0.00;0.00;0.62;6.10;5.13;;;25.50;20.70;;;;;;2259232;61;20941;-65
2023/05/04 07:10:21;0.00;0.00;0.62;0.00;0.00;0.62;6.90;6.03;;;25.40;20.60;;;;;;2259857;61;20949;-65
2023/05/04 07:13:07;0.00;0.00;0.62;0.00;0.00;0.62;5.57;4.77;;;25.40;20.60;;;;;;2259709;61;20369;-66
2023/05/04 07:15:51;0.00;0.00;0.62;0.00;0.00;0.62;5.73;5.07;;;25.50;20.70;;;;;;2259966;61;20826;-67
2023/05/04 07:18:37;0.00;0.00;0.62;0.00;0.00;0.62;7.47;5.50;;;25.50;20.70;;;;;;2259761;61;20894;-66
2023/05/04 07:21:23;0.00;0.00;0.62;0.00;0.00;0.62;5.17;4.30;;;25.40;20.60;;;;;;2259413;61;20424;-65
2023/05/04 07:24:08;0.00;0.00;0.62;0.00;0.00;0.62;6.50;5.30;;;25.50;20.70;;;;;;2260066;61;20879;-66
2023/05/04 07:26:54;0.00;0.00;0.62;0.00;0.00;0.62;5.43;4.37;;;25.50;20.70;;;;;;2259898;61;20431;-67
2023/05/04 07:29:40;0.00;0.00;0.62;0.00;0.00;0.62;6.20;4.90;;;25.50;20.70;;;;;;2259329;61;20372;-66
2023/05/04 07:32:25;0.00;0.00;0.62;0.00;0.00;0.62;6.40;4.90;;;25.50;20.70;;;;;;2259942;61;20775;-66
2023/05/04 07:35:10;0.00;0.00;0.62;0.00;0.00;0.62;5.80;4.40;;;25.50;20.70;;;;;;2259575;61;20361;-67
2023/05/04 07:37:55;0.00;0.00;0.62;0.00;0.00;0.62;6.87;4.70;;;25.50;20.70;;;;;;2259913;61;20493;-65
2023/05/04 07:40:39;0.00;0.00;0.62;0.00;0.00;0.62;4.70;4.20;;;25.50;20.70;;;;;;2259473;61;20431;-65
2023/05/04 07:43:25;0.00;0.00;0.62;0.00;0.00;0.62;5.70;4.40;;;25.50;20.70;;;;;;2258508;61;20365;-67
2023/05/04 07:46:10;0.00;0.00;0.62;0.00;0.00;0.62;5.40;4.53;;;25.50;20.70;;;;;;2259758;61;20445;-66
2023/05/04 07:48:54;0.00;0.00;0.62;0.00;0.00;0.62;4.27;3.80;;;25.50;20.70;;;;;;2259595;61;20392;-66
2023/05/04 07:51:39;0.00;0.00;0.62;0.00;0.00;0.62;4.33;3.93;;;25.50;20.70;;;;;;2259288;61;20475;-66
2023/05/04 07:54:24;0.00;0.00;0.62;0.00;0.00;0.62;4.50;4.00;;;25.50;20.70;;;;;;2259431;61;20364;-67
2023/05/04 07:57:09;0.00;0.00;0.62;0.00;0.00;0.62;4.40;3.70;;;25.50;21.20;;;;;;2259475;61;20365;-66
2023/05/04 07:59:55;0.00;0.00;0.62;0.00;0.00;0.62;4.87;3.83;;;25.50;20.70;;;;;;2259295;61;20388;-67
2023/05/04 08:02:40;0.00;0.00;0.62;0.00;0.00;0.62;4.47;3.90;;;25.50;20.70;;;;;;2259190;61;20792;-66
2023/05/04 08:05:25;0.00;0.00;0.62;0.00;0.00;0.62;3.90;3.47;;;25.50;20.70;;;;;;2259063;61;20396;-65
2023/05/04 08:08:10;0.00;0.00;0.62;0.00;0.00;0.62;4.53;4.00;;;25.50;20.70;;;;;;2259425;61;20535;-67
2023/05/04 08:10:54;0.00;0.00;0.62;0.00;0.00;0.62;4.60;3.50;;;25.40;20.70;;;;;;2259115;61;20502;-66
2023/05/04 08:13:40;0.00;0.00;0.62;0.00;0.00;0.62;4.37;3.57;;;25.50;20.70;;;;;;2259294;61;20392;-65
2023/05/04 08:16:28;0.00;0.00;0.62;0.00;0.00;0.62;3.60;3.10;;;25.50;20.70;;;;;;2259764;61;20368;-66
2023/05/04 08:19:13;0.00;0.00;0.62;0.00;0.00;0.62;3.43;2.93;;;25.40;20.70;;;;;;2258822;61;20828;-66
2023/05/04 08:21:58;0.00;0.00;0.62;0.00;0.00;0.62;4.47;3.50;;;25.50;20.80;;;;;;2259610;61;20392;-66
2023/05/04 08:24:46;0.00;0.00;0.62;0.00;0.00;0.62;3.97;3.57;;;25.50;20.70;;;;;;2259988;61;20368;-69
2023/05/04 08:27:30;0.00;0.00;0.62;0.00;0.00;0.62;4.00;3.50;;;25.50;20.80;;;;;;2259540;61;20434;-67
2023/05/04 08:30:16;0.00;0.00;0.62;0.00;0.00;0.62;3.80;3.30;;;25.40;20.70;;;;;;2260143;61;20411;-66
2023/05/04 08:33:02;0.00;0.00;0.62;0.00;0.00;0.62;4.30;3.40;;;25.50;20.70;;;;;;2260667;61;20372;-66
2023/05/04 08:35:46;0.00;0.00;0.62;0.00;0.00;0.62;3.47;3.17;;;25.50;20.80;;;;;;2259692;61;20381;-66
2023/05/04 08:38:31;0.00;0.00;0.62;0.00;0.00;0.62;4.50;3.40;;;25.50;20.80;;;;;;2260836;61;20435;-67
2023/05/04 08:41:16;0.00;0.00;0.62;0.00;0.00;0.62;4.07;3.30;;;25.50;20.80;;;;;;2260034;61;20914;-67
2023/05/04 08:44:05;0.00;0.00;0.62;0.00;0.00;0.62;5.00;3.93;;;25.50;20.80;;;;;;2259659;61;20972;-67
2023/05/04 08:46:52;0.00;0.00;0.62;0.00;0.00;0.62;3.43;2.87;;;25.50;20.80;;;;;;2260527;61;20369;-66
2023/05/04 08:49:38;0.00;0.00;0.62;0.00;0.00;0.62;4.10;3.47;;;25.40;20.70;;;;;;2259953;61;20461;-67
2023/05/04 08:52:25;0.00;0.00;0.62;0.00;0.00;0.62;4.33;3.87;;;25.50;20.80;;;;;;2260446;61;20924;-68
2023/05/04 08:55:11;0.00;0.00;0.62;0.00;0.00;0.62;4.73;3.60;;;25.50;20.80;;;;;;2260438;61;20647;-67
2023/05/04 08:58:03;0.00;0.00;0.62;0.00;0.00;0.62;4.00;3.43;;;25.50;20.80;;;;;;2259815;61;20762;-66
2023/05/04 09:00:48;0.00;0.00;0.62;0.00;0.00;0.62;4.80;3.87;;;25.50;20.80;;;;;;2260029;61;20392;-67
2023/05/04 09:03:33;0.00;0.00;0.62;0.00;0.00;0.62;4.97;3.90;;;25.50;20.80;;;;;;2260144;61;20850;-66
2023/05/04 09:06:19;0.00;0.00;0.62;0.00;0.00;0.62;4.00;3.10;;;25.50;20.80;;;;;;2260132;61;20412;-66
2023/05/04 09:09:04;0.00;0.00;0.62;0.00;0.00;0.62;5.63;3.73;;;25.50;20.80;;;;;;2259973;61;20361;-68
2023/05/04 09:11:49;0.00;0.00;0.62;0.00;0.00;0.62;3.73;3.23;;;25.50;20.80;;;;;;2260299;61;20466;-66
2023/05/04 09:14:35;0.00;0.00;0.62;0.00;0.00;0.62;3.77;3.10;;;25.50;20.80;;;;;;2260133;61;20905;-69
2023/05/04 09:17:24;0.00;0.00;0.62;0.00;0.00;0.62;4.00;2.90;;;25.50;20.80;;;;;;2260149;61;20381;-66
2023/05/04 09:20:11;0.00;0.00;0.62;0.00;0.00;0.62;4.67;3.70;;;25.50;20.80;;;;;;2259352;61;20397;-65
2023/05/04 09:23:06;0.00;0.00;0.62;0.00;0.00;0.62;4.50;3.80;;;25.50;20.80;;;;;;2260487;61;20400;-66
2023/05/04 09:25:53;0.00;0.00;0.62;0.00;0.00;0.62;4.20;3.30;;;25.50;20.80;;;;;;2260044;61;20373;-67
2023/05/04 09:28:38;0.00;0.00;0.62;0.00;0.00;0.62;3.67;3.23;;;25.50;20.80;;;;;;2260190;61;20408;-66
2023/05/04 09:31:23;0.00;0.00;0.62;0.00;0.00;0.62;4.27;3.47;;;25.50;20.80;;;;;;2260171;61;20462;-65
2023/05/04 09:34:08;0.00;0.00;0.62;0.00;0.00;0.62;3.83;3.43;;;25.50;20.80;;;;;;2259360;61;20393;-66
2023/05/04 09:36:59;0.00;0.00;0.62;0.00;0.00;0.62;3.93;3.10;;;25.50;20.80;;;;;;2260564;61;20407;-66
2023/05/04 09:39:57;0.00;0.00;0.62;0.00;0.00;0.62;3.73;3.20;;;25.50;20.80;;;;;;2259866;61;20365;-66
2023/05/04 09:42:42;0.00;0.00;0.62;0.00;0.00;0.62;4.50;3.13;;;25.50;20.80;;;;;;2259759;61;20400;-67
2023/05/04 09:45:38;0.00;0.00;0.62;0.00;0.00;0.62;3.47;3.10;;;25.50;20.80;;;;;;2260121;61;20419;-66
2023/05/04 09:48:25;0.00;0.00;0.62;0.00;0.00;0.62;3.23;2.80;;;25.50;20.80;;;;;;2259924;61;20392;-66
2023/05/04 09:51:10;0.00;0.00;0.62;0.00;0.00;0.62;3.60;2.97;;;25.50;20.80;;;;;;2259916;61;20473;-67
2023/05/04 09:53:59;0.00;0.00;0.62;0.00;0.00;0.62;3.33;2.90;;;25.60;20.90;;;;;;2260226;61;20813;-66
2023/05/04 09:56:51;0.00;0.00;0.62;0.00;0.00;0.62;3.50;2.97;;;25.60;20.90;;;;;;2259803;61;20419;-66
2023/05/04 09:59:36;0.00;0.00;0.62;0.00;0.00;0.62;3.33;3.03;;;25.60;20.90;;;;;;2259486;61;20418;-65
2023/05/04 10:02:22;0.00;0.00;0.62;0.00;0.00;0.62;3.80;2.93;;;25.60;20.90;;;;;;2260346;61;20484;-65
2023/05/04 10:05:10;0.00;0.00;0.62;0.00;0.00;0.62;3.07;2.77;;;25.60;20.90;;;;;;2259669;61;20360;-65
2023/05/04 10:07:59;0.00;0.00;0.62;0.00;0.00;0.62;4.63;3.60;;;25.60;20.90;;;;;;2260169;61;20388;-65
2023/05/04 10:10:44;0.00;0.00;0.62;0.00;0.00;0.62;2.90;2.60;;;25.60;20.90;;;;;;2259684;61;20427;-65
2023/05/04 10:13:31;0.00;0.00;0.62;0.00;0.00;0.62;3.20;2.87;;;25.60;20.90;;;;;;2260017;61;20377;-65
2023/05/04 10:16:30;0.00;0.00;0.62;0.00;0.00;0.62;2.90;2.40;;;25.60;20.90;;;;;;2260214;61;20365;-66
2023/05/04 10:19:45;0.00;0.00;0.62;0.00;0.00;0.62;2.80;2.50;;;25.60;20.90;;;;;;2259263;61;20412;-65
2023/05/04 10:22:46;0.00;0.00;0.62;0.00;0.00;0.62;3.60;2.70;;;25.60;20.90;;;;;;2260341;61;20408;-66
2023/05/04 10:25:49;0.00;0.00;0.62;0.00;0.00;0.62;2.60;2.10;;;25.70;21.00;;;;;;2259865;61;20385;-66
2023/05/04 10:28:49;0.00;0.00;0.62;0.00;0.00;0.62;3.40;3.10;;;25.70;21.00;;;;;;2259816;61;20392;-66
2023/05/04 10:31:39;0.00;0.00;0.62;0.00;0.00;0.62;3.00;2.57;;;25.70;21.00;;;;;;2260239;61;20782;-66
2023/05/04 10:34:26;0.00;0.00;0.62;0.00;0.00;0.62;2.70;2.30;;;25.70;21.00;;;;;;2259261;61;20416;-69
2023/05/04 10:37:17;0.00;0.00;0.62;0.00;0.00;0.62;2.87;2.27;;;25.70;21.10;;;;;;2260245;61;20371;-67
2023/05/04 10:40:01;0.00;0.00;0.62;0.00;0.00;0.62;3.13;2.50;;;25.70;21.10;;;;;;2259687;61;20447;-67
2023/05/04 10:42:46;0.00;0.00;0.62;0.00;0.00;0.62;2.70;2.20;;;25.70;21.00;;;;;;2259630;61;20393;-67
2023/05/04 10:45:36;0.00;0.00;0.62;0.00;0.00;0.62;2.20;1.87;;;25.70;21.00;;;;;;2259963;61;20414;-65
2023/05/04 10:48:33;0.00;0.00;0.62;0.00;0.00;0.62;2.87;2.07;;;25.70;21.10;;;;;;2259613;61;20412;-67
2023/05/04 10:51:19;0.00;0.00;0.62;0.00;0.00;0.62;2.93;2.10;;;25.70;21.10;;;;;;2260077;61;20388;-67
2023/05/04 10:54:04;0.00;0.00;0.62;0.00;0.00;0.62;2.20;2.00;;;25.80;21.20;;;;;;2260264;61;20891;-65
2023/05/04 10:57:01;0.00;0.00;0.62;0.00;0.00;0.62;2.80;2.20;;;25.80;21.20;;;;;;2259463;61;20412;-64
2023/05/04 10:59:55;0.00;0.00;0.62;0.00;0.00;0.62;2.80;2.07;;;25.80;21.20;;;;;;2259228;61;20360;-64
2023/05/04 11:02:41;0.00;0.00;0.62;0.00;0.00;0.62;2.20;1.70;;;25.80;21.30;;;;;;2259321;61;20419;-69